sensor_id;sensor_type;location;lat;lon;timestamp;pressure;altitude;pressure_sealevel;temperature;humidity
65754;BME280;52488;47.502;18.940;2023-03-22T00:00:37;97996.09;;;8.85;65.67
65754;BME280;52488;47.502;18.940;2023-03-22T00:01:41;97989.87;;;8.85;65.97
65754;BME280;52488;47.502;18.940;2023-03-22T00:02:44;97993.47;;;8.78;66.10
65754;BME280;52488;47.502;18.940;2023-03-22T00:03:48;97998.78;;;8.76;66.55
65754;BME280;52488;47.502;18.940;2023-03-22T00:04:52;97991.56;;;8.70;66.82
65754;BME280;52488;47.502;18.940;2023-03-22T00:05:56;98000.22;;;8.67;66.70
65754;BME280;52488;47.502;18.940;2023-03-22T00:06:59;97995.47;;;8.67;67.16
65754;BME280;52488;47.502;18.940;2023-03-22T00:08:02;97991.13;;;8.64;67.46
65754;BME280;52488;47.502;18.940;2023-03-22T00:09:08;97995.44;;;8.58;67.70
65754;BME280;52488;47.502;18.940;2023-03-22T00:10:11;97990.22;;;8.52;67.62
65754;BME280;52488;47.502;18.940;2023-03-22T00:11:14;97985.31;;;8.51;68.13
65754;BME280;52488;47.502;18.940;2023-03-22T00:12:17;97988.47;;;8.47;68.65
65754;BME280;52488;47.502;18.940;2023-03-22T00:13:20;97982.69;;;8.43;69.13
65754;BME280;52488;47.502;18.940;2023-03-22T00:14:23;97984.25;;;8.36;69.43
65754;BME280;52488;47.502;18.940;2023-03-22T00:15:26;97983.19;;;8.32;69.63
65754;BME280;52488;47.502;18.940;2023-03-22T00:16:31;97987.94;;;8.31;69.29
65754;BME280;52488;47.502;18.940;2023-03-22T00:17:34;97978.44;;;8.32;69.03
65754;BME280;52488;47.502;18.940;2023-03-22T00:18:38;97980.97;;;8.20;69.16
65754;BME280;52488;47.502;18.940;2023-03-22T00:19:41;97984.69;;;8.06;69.44
65754;BME280;52488;47.502;18.940;2023-03-22T00:20:51;97982.59;;;7.97;69.94
65754;BME280;52488;47.502;18.940;2023-03-22T00:21:55;97981.25;;;7.88;69.93
65754;BME280;52488;47.502;18.940;2023-03-22T00:22:59;97981.56;;;7.92;69.82
65754;BME280;52488;47.502;18.940;2023-03-22T00:24:02;97984.81;;;7.81;70.16
65754;BME280;52488;47.502;18.940;2023-03-22T00:25:05;97994.16;;;7.78;70.26
65754;BME280;52488;47.502;18.940;2023-03-22T00:26:10;97990.78;;;7.70;70.29
65754;BME280;52488;47.502;18.940;2023-03-22T00:27:13;97988.53;;;7.58;70.71
65754;BME280;52488;47.502;18.940;2023-03-22T00:28:17;97989.75;;;7.48;71.56
65754;BME280;52488;47.502;18.940;2023-03-22T00:29:21;97986.16;;;7.45;71.58
65754;BME280;52488;47.502;18.940;2023-03-22T00:30:25;97988.41;;;7.39;71.71
65754;BME280;52488;47.502;18.940;2023-03-22T00:31:28;97993.22;;;7.31;71.86
65754;BME280;52488;47.502;18.940;2023-03-22T00:32:37;97991.44;;;7.26;72.24
65754;BME280;52488;47.502;18.940;2023-03-22T00:33:41;97993.31;;;7.23;72.55
65754;BME280;52488;47.502;18.940;2023-03-22T00:34:44;97994.66;;;7.14;73.14
65754;BME280;52488;47.502;18.940;2023-03-22T00:35:51;97994.16;;;7.08;73.07
65754;BME280;52488;47.502;18.940;2023-03-22T00:36:54;97988.56;;;7.06;72.87
65754;BME280;52488;47.502;18.940;2023-03-22T00:37:58;97984.06;;;7.01;72.74
65754;BME280;52488;47.502;18.940;2023-03-22T00:39:16;97986.59;;;6.99;73.47
65754;BME280;52488;47.502;18.940;2023-03-22T00:40:19;97983.00;;;6.97;73.26
65754;BME280;52488;47.502;18.940;2023-03-22T00:41:23;97984.50;;;6.90;73.58
65754;BME280;52488;47.502;18.940;2023-03-22T00:42:26;97984.66;;;6.92;73.46
65754;BME280;52488;47.502;18.940;2023-03-22T00:43:29;97983.72;;;6.97;73.85
65754;BME280;52488;47.502;18.940;2023-03-22T00:44:32;97985.50;;;7.02;74.82
65754;BME280;52488;47.502;18.940;2023-03-22T00:45:35;97986.84;;;6.94;75.43
65754;BME280;52488;47.502;18.940;2023-03-22T00:46:40;97983.78;;;6.90;75.40
65754;BME280;52488;47.502;18.940;2023-03-22T00:47:43;97974.69;;;6.87;76.09
65754;BME280;52488;47.502;18.940;2023-03-22T00:48:47;97982.84;;;6.95;75.84
65754;BME280;52488;47.502;18.940;2023-03-22T00:49:50;97979.53;;;6.96;76.03
65754;BME280;52488;47.502;18.940;2023-03-22T00:50:53;97977.44;;;7.04;76.24
65754;BME280;52488;47.502;18.940;2023-03-22T00:51:56;97980.28;;;7.14;77.04
65754;BME280;52488;47.502;18.940;2023-03-22T00:52:59;97976.00;;;7.21;77.33
65754;BME280;52488;47.502;18.940;2023-03-22T00:54:02;97981.97;;;7.27;77.50
65754;BME280;52488;47.502;18.940;2023-03-22T00:55:05;97974.47;;;7.27;77.71
65754;BME280;52488;47.502;18.940;2023-03-22T00:56:09;97974.25;;;7.33;78.05
65754;BME280;52488;47.502;18.940;2023-03-22T00:57:15;97971.34;;;7.48;78.56
65754;BME280;52488;47.502;18.940;2023-03-22T00:58:19;97972.97;;;7.51;78.76
65754;BME280;52488;47.502;18.940;2023-03-22T00:59:22;97979.88;;;7.52;78.93
65754;BME280;52488;47.502;18.940;2023-03-22T01:00:26;97975.84;;;7.53;78.73
65754;BME280;52488;47.502;18.940;2023-03-22T01:01:29;97980.09;;;7.64;78.88
65754;BME280;52488;47.502;18.940;2023-03-22T01:02:33;97976.78;;;7.65;78.90
65754;BME280;52488;47.502;18.940;2023-03-22T01:03:36;97971.50;;;7.67;78.81
65754;BME280;52488;47.502;18.940;2023-03-22T01:04:41;97966.31;;;7.72;78.82
65754;BME280;52488;47.502;18.940;2023-03-22T01:05:48;97962.34;;;7.82;78.75
65754;BME280;52488;47.502;18.940;2023-03-22T01:06:53;97959.94;;;7.86;78.62
65754;BME280;52488;47.502;18.940;2023-03-22T01:08:04;97956.63;;;7.88;78.65
65754;BME280;52488;47.502;18.940;2023-03-22T01:09:18;97953.88;;;7.88;78.86
65754;BME280;52488;47.502;18.940;2023-03-22T01:10:25;97955.12;;;8.04;78.70
65754;BME280;52488;47.502;18.940;2023-03-22T01:11:28;97957.31;;;8.06;78.35
65754;BME280;52488;47.502;18.940;2023-03-22T01:12:32;97950.37;;;8.05;78.46
65754;BME280;52488;47.502;18.940;2023-03-22T01:13:35;97957.31;;;8.06;78.46
65754;BME280;52488;47.502;18.940;2023-03-22T01:14:43;97947.09;;;8.06;78.58
65754;BME280;52488;47.502;18.940;2023-03-22T01:15:49;97948.41;;;8.15;78.34
65754;BME280;52488;47.502;18.940;2023-03-22T01:16:53;97945.84;;;8.17;78.26
65754;BME280;52488;47.502;18.940;2023-03-22T01:17:59;97951.19;;;8.25;78.14
65754;BME280;52488;47.502;18.940;2023-03-22T01:19:02;97950.28;;;8.39;77.52
65754;BME280;52488;47.502;18.940;2023-03-22T01:20:06;97954.31;;;8.48;77.16
65754;BME280;52488;47.502;18.940;2023-03-22T01:21:11;97953.00;;;8.39;77.05
65754;BME280;52488;47.502;18.940;2023-03-22T01:22:14;97956.00;;;8.34;77.18
65754;BME280;52488;47.502;18.940;2023-03-22T01:23:17;97951.34;;;8.27;76.58
65754;BME280;52488;47.502;18.940;2023-03-22T01:24:20;97946.84;;;8.21;76.65
65754;BME280;52488;47.502;18.940;2023-03-22T01:25:23;97945.38;;;8.11;76.39
65754;BME280;52488;47.502;18.940;2023-03-22T01:26:26;97942.03;;;8.03;76.62
65754;BME280;52488;47.502;18.940;2023-03-22T01:27:29;97946.31;;;7.96;76.82
65754;BME280;52488;47.502;18.940;2023-03-22T01:28:32;97949.16;;;7.88;77.12
65754;BME280;52488;47.502;18.940;2023-03-22T01:29:35;97939.75;;;7.82;77.71
65754;BME280;52488;47.502;18.940;2023-03-22T01:30:39;97949.66;;;7.77;78.46
65754;BME280;52488;47.502;18.940;2023-03-22T01:31:43;97945.47;;;7.76;79.23
65754;BME280;52488;47.502;18.940;2023-03-22T01:32:46;97943.16;;;7.73;79.44
65754;BME280;52488;47.502;18.940;2023-03-22T01:33:49;97948.47;;;7.71;79.26
65754;BME280;52488;47.502;18.940;2023-03-22T01:34:52;97952.66;;;7.72;78.98
65754;BME280;52488;47.502;18.940;2023-03-22T01:35:55;97948.31;;;7.68;79.10
65754;BME280;52488;47.502;18.940;2023-03-22T01:36:58;97951.53;;;7.75;78.40
65754;BME280;52488;47.502;18.940;2023-03-22T01:38:01;97956.47;;;7.86;77.61
65754;BME280;52488;47.502;18.940;2023-03-22T01:39:04;97952.72;;;7.81;77.53
65754;BME280;52488;47.502;18.940;2023-03-22T01:40:08;97949.63;;;7.67;77.85
65754;BME280;52488;47.502;18.940;2023-03-22T01:41:12;97950.84;;;7.57;78.14
65754;BME280;52488;47.502;18.940;2023-03-22T01:42:15;97960.00;;;7.52;78.61
65754;BME280;52488;47.502;18.940;2023-03-22T01:43:20;97956.72;;;7.53;78.47
65754;BME280;52488;47.502;18.940;2023-03-22T01:44:23;97948.94;;;7.50;78.09
65754;BME280;52488;47.502;18.940;2023-03-22T01:45:31;97954.16;;;7.38;78.06
65754;BME280;52488;47.502;18.940;2023-03-22T01:46:36;97957.87;;;7.33;77.95
65754;BME280;52488;47.502;18.940;2023-03-22T01:47:57;97957.31;;;7.17;78.07
65754;BME280;52488;47.502;18.940;2023-03-22T01:49:03;97956.25;;;7.12;78.37
65754;BME280;52488;47.502;18.940;2023-03-22T01:50:07;97955.94;;;7.08;78.67
65754;BME280;52488;47.502;18.940;2023-03-22T01:51:17;97952.72;;;7.02;78.89
65754;BME280;52488;47.502;18.940;2023-03-22T01:52:21;97961.00;;;7.12;78.70
65754;BME280;52488;47.502;18.940;2023-03-22T01:53:25;97960.75;;;7.00;78.37
65754;BME280;52488;47.502;18.940;2023-03-22T01:54:33;97954.06;;;6.94;78.58
65754;BME280;52488;47.502;18.940;2023-03-22T01:55:38;97950.53;;;6.83;78.70
65754;BME280;52488;47.502;18.940;2023-03-22T01:56:41;97957.19;;;6.73;78.76
65754;BME280;52488;47.502;18.940;2023-03-22T01:57:45;97960.53;;;6.64;79.16
65754;BME280;52488;47.502;18.940;2023-03-22T01:58:48;97956.03;;;6.58;79.44
65754;BME280;52488;47.502;18.940;2023-03-22T01:59:52;97959.13;;;6.55;79.37
65754;BME280;52488;47.502;18.940;2023-03-22T02:00:55;97961.22;;;6.47;79.87
65754;BME280;52488;47.502;18.940;2023-03-22T02:01:59;97956.94;;;6.61;79.76
65754;BME280;52488;47.502;18.940;2023-03-22T02:03:05;97960.03;;;6.57;80.13
65754;BME280;52488;47.502;18.940;2023-03-22T02:04:18;97956.47;;;6.47;80.53
65754;BME280;52488;47.502;18.940;2023-03-22T02:05:27;97952.53;;;6.41;80.53
65754;BME280;52488;47.502;18.940;2023-03-22T02:06:33;97959.81;;;6.38;80.55
65754;BME280;52488;47.502;18.940;2023-03-22T02:07:41;97968.22;;;6.32;80.54
65754;BME280;52488;47.502;18.940;2023-03-22T02:08:44;97958.81;;;6.26;80.58
65754;BME280;52488;47.502;18.940;2023-03-22T02:09:48;97957.53;;;6.27;80.51
65754;BME280;52488;47.502;18.940;2023-03-22T02:10:51;97964.28;;;6.26;80.40
65754;BME280;52488;47.502;18.940;2023-03-22T02:12:02;97961.88;;;6.30;80.43
65754;BME280;52488;47.502;18.940;2023-03-22T02:15:16;97960.47;;;6.21;80.90
65754;BME280;52488;47.502;18.940;2023-03-22T02:21:07;97968.06;;;6.05;82.59
65754;BME280;52488;47.502;18.940;2023-03-22T02:27:17;97970.78;;;6.30;81.72
65754;BME280;52488;47.502;18.940;2023-03-22T02:34:27;97973.91;;;6.27;82.92
65754;BME280;52488;47.502;18.940;2023-03-22T02:37:19;97976.13;;;6.21;83.08
65754;BME280;52488;47.502;18.940;2023-03-22T02:40:24;97977.84;;;6.08;84.40
65754;BME280;52488;47.502;18.940;2023-03-22T02:43:32;97976.56;;;6.09;84.30
65754;BME280;52488;47.502;18.940;2023-03-22T02:44:49;97978.19;;;6.13;84.07
65754;BME280;52488;47.502;18.940;2023-03-22T02:47:07;97978.69;;;6.19;84.07
65754;BME280;52488;47.502;18.940;2023-03-22T02:48:21;97974.84;;;6.22;83.84
65754;BME280;52488;47.502;18.940;2023-03-22T02:49:42;97973.75;;;6.25;83.86
65754;BME280;52488;47.502;18.940;2023-03-22T02:50:53;97977.16;;;6.33;83.74
65754;BME280;52488;47.502;18.940;2023-03-22T02:53:19;97970.41;;;6.34;84.07
65754;BME280;52488;47.502;18.940;2023-03-22T02:54:34;97971.69;;;6.33;84.25
65754;BME280;52488;47.502;18.940;2023-03-22T02:55:46;97966.41;;;6.35;84.38
65754;BME280;52488;47.502;18.940;2023-03-22T02:59:39;97966.28;;;6.50;84.83
65754;BME280;52488;47.502;18.940;2023-03-22T03:00:44;97967.22;;;6.70;85.02
65754;BME280;52488;47.502;18.940;2023-03-22T03:01:54;97958.06;;;6.75;84.93
65754;BME280;52488;47.502;18.940;2023-03-22T03:03:01;97962.97;;;6.77;84.91
65754;BME280;52488;47.502;18.940;2023-03-22T03:04:23;97967.16;;;6.78;84.84
65754;BME280;52488;47.502;18.940;2023-03-22T03:05:29;97970.38;;;6.84;85.02
65754;BME280;52488;47.502;18.940;2023-03-22T03:06:38;97967.56;;;6.92;85.05
65754;BME280;52488;47.502;18.940;2023-03-22T03:07:53;97971.13;;;7.02;84.57
65754;BME280;52488;47.502;18.940;2023-03-22T03:08:58;97975.44;;;7.05;84.18
65754;BME280;52488;47.502;18.940;2023-03-22T03:10:08;97980.28;;;7.14;84.01
65754;BME280;52488;47.502;18.940;2023-03-22T03:11:12;97970.00;;;7.22;83.93
65754;BME280;52488;47.502;18.940;2023-03-22T03:12:22;97977.41;;;7.29;83.88
65754;BME280;52488;47.502;18.940;2023-03-22T03:13:25;97973.44;;;7.40;83.64
65754;BME280;52488;47.502;18.940;2023-03-22T03:14:30;97972.25;;;7.51;83.21
65754;BME280;52488;47.502;18.940;2023-03-22T03:15:33;97967.06;;;7.55;83.00
65754;BME280;52488;47.502;18.940;2023-03-22T03:16:37;97969.78;;;7.72;82.44
65754;BME280;52488;47.502;18.940;2023-03-22T03:19:18;97967.81;;;7.82;81.67
65754;BME280;52488;47.502;18.940;2023-03-22T03:21:54;97956.47;;;7.86;81.56
65754;BME280;52488;47.502;18.940;2023-03-22T03:23:59;97959.28;;;7.96;81.15
65754;BME280;52488;47.502;18.940;2023-03-22T03:29:40;97970.28;;;8.05;80.79
65754;BME280;52488;47.502;18.940;2023-03-22T03:30:58;97974.06;;;8.19;80.25
65754;BME280;52488;47.502;18.940;2023-03-22T03:32:16;97976.28;;;8.31;79.70
65754;BME280;52488;47.502;18.940;2023-03-22T03:33:24;97984.91;;;8.27;79.69
65754;BME280;52488;47.502;18.940;2023-03-22T03:35:46;97992.09;;;8.23;79.85
65754;BME280;52488;47.502;18.940;2023-03-22T03:37:04;97995.97;;;8.19;79.94
65754;BME280;52488;47.502;18.940;2023-03-22T03:38:13;97990.91;;;8.16;79.72
65754;BME280;52488;47.502;18.940;2023-03-22T03:39:20;97993.50;;;8.14;79.74
65754;BME280;52488;47.502;18.940;2023-03-22T03:40:35;97994.63;;;8.11;79.81
65754;BME280;52488;47.502;18.940;2023-03-22T03:41:41;97981.97;;;8.15;79.62
65754;BME280;52488;47.502;18.940;2023-03-22T03:42:49;97992.91;;;8.15;79.10
65754;BME280;52488;47.502;18.940;2023-03-22T03:43:53;97986.97;;;8.09;79.11
65754;BME280;52488;47.502;18.940;2023-03-22T03:44:59;97989.81;;;8.02;79.25
65754;BME280;52488;47.502;18.940;2023-03-22T03:46:04;97992.81;;;7.96;79.39
65754;BME280;52488;47.502;18.940;2023-03-22T03:47:09;97995.81;;;7.90;79.52
65754;BME280;52488;47.502;18.940;2023-03-22T03:48:22;97999.13;;;7.89;79.66
65754;BME280;52488;47.502;18.940;2023-03-22T03:49:26;98000.97;;;7.86;79.71
65754;BME280;52488;47.502;18.940;2023-03-22T03:50:30;97999.91;;;7.82;79.92
65754;BME280;52488;47.502;18.940;2023-03-22T03:51:45;97997.19;;;7.82;79.72
65754;BME280;52488;47.502;18.940;2023-03-22T03:52:50;97995.13;;;7.73;79.53
65754;BME280;52488;47.502;18.940;2023-03-22T03:53:54;97999.06;;;7.62;79.72
65754;BME280;52488;47.502;18.940;2023-03-22T03:54:57;97997.72;;;7.53;80.07
65754;BME280;52488;47.502;18.940;2023-03-22T03:56:00;97993.28;;;7.58;80.25
65754;BME280;52488;47.502;18.940;2023-03-22T03:57:03;97987.19;;;7.67;79.91
65754;BME280;52488;47.502;18.940;2023-03-22T03:58:06;97986.03;;;7.70;79.80
65754;BME280;52488;47.502;18.940;2023-03-22T03:59:10;97987.56;;;7.63;80.01
65754;BME280;52488;47.502;18.940;2023-03-22T04:00:14;97984.44;;;7.67;80.08
65754;BME280;52488;47.502;18.940;2023-03-22T04:01:19;97990.69;;;7.60;80.30
65754;BME280;52488;47.502;18.940;2023-03-22T04:02:22;97991.66;;;7.55;80.54
65754;BME280;52488;47.502;18.940;2023-03-22T04:03:25;97985.19;;;7.50;80.70
65754;BME280;52488;47.502;18.940;2023-03-22T04:04:28;97987.75;;;7.48;81.01
65754;BME280;52488;47.502;18.940;2023-03-22T04:05:31;97986.69;;;7.44;81.13
65754;BME280;52488;47.502;18.940;2023-03-22T04:06:34;97994.59;;;7.39;81.09
65754;BME280;52488;47.502;18.940;2023-03-22T04:07:37;97993.69;;;7.37;81.11
65754;BME280;52488;47.502;18.940;2023-03-22T04:08:40;97999.41;;;7.31;81.39
65754;BME280;52488;47.502;18.940;2023-03-22T04:09:47;98006.00;;;7.28;81.55
65754;BME280;52488;47.502;18.940;2023-03-22T04:10:50;98001.91;;;7.37;80.86
65754;BME280;52488;47.502;18.940;2023-03-22T04:11:55;98003.28;;;7.28;80.90
65754;BME280;52488;47.502;18.940;2023-03-22T04:12:58;98003.34;;;7.21;81.07
65754;BME280;52488;47.502;18.940;2023-03-22T04:14:01;98005.69;;;7.24;81.18
65754;BME280;52488;47.502;18.940;2023-03-22T04:15:05;98005.91;;;7.36;80.90
65754;BME280;52488;47.502;18.940;2023-03-22T04:16:08;98007.69;;;7.41;80.90
65754;BME280;52488;47.502;18.940;2023-03-22T04:17:11;97996.44;;;7.37;80.85
65754;BME280;52488;47.502;18.940;2023-03-22T04:18:14;97995.94;;;7.31;81.09
65754;BME280;52488;47.502;18.940;2023-03-22T04:19:18;98004.16;;;7.31;81.15
65754;BME280;52488;47.502;18.940;2023-03-22T04:20:21;97995.06;;;7.28;81.36
65754;BME280;52488;47.502;18.940;2023-03-22T04:21:24;97996.19;;;7.25;81.61
65754;BME280;52488;47.502;18.940;2023-03-22T04:22:27;97985.66;;;7.22;81.77
65754;BME280;52488;47.502;18.940;2023-03-22T04:23:30;97982.63;;;7.18;81.91
65754;BME280;52488;47.502;18.940;2023-03-22T04:24:35;97990.47;;;7.13;82.05
65754;BME280;52488;47.502;18.940;2023-03-22T04:25:39;97983.25;;;7.08;82.16
65754;BME280;52488;47.502;18.940;2023-03-22T04:26:43;97985.81;;;7.06;82.24
65754;BME280;52488;47.502;18.940;2023-03-22T04:27:47;97988.94;;;7.03;82.31
65754;BME280;52488;47.502;18.940;2023-03-22T04:28:52;97995.53;;;7.00;82.35
65754;BME280;52488;47.502;18.940;2023-03-22T04:29:55;97991.56;;;6.93;82.52
65754;BME280;52488;47.502;18.940;2023-03-22T04:30:59;97989.78;;;6.88;82.65
65754;BME280;52488;47.502;18.940;2023-03-22T04:32:05;97993.66;;;6.85;82.71
65754;BME280;52488;47.502;18.940;2023-03-22T04:33:08;97990.03;;;6.82;82.63
65754;BME280;52488;47.502;18.940;2023-03-22T04:34:10;97993.00;;;6.77;82.76
65754;BME280;52488;47.502;18.940;2023-03-22T04:35:14;98004.03;;;6.86;82.80
65754;BME280;52488;47.502;18.940;2023-03-22T04:36:18;97998.00;;;6.88;82.91
65754;BME280;52488;47.502;18.940;2023-03-22T04:37:21;98008.59;;;6.84;83.07
65754;BME280;52488;47.502;18.940;2023-03-22T04:38:28;98000.94;;;6.82;83.07
65754;BME280;52488;47.502;18.940;2023-03-22T04:39:31;98005.16;;;6.83;82.81
65754;BME280;52488;47.502;18.940;2023-03-22T04:40:34;98003.16;;;6.84;82.80
65754;BME280;52488;47.502;18.940;2023-03-22T04:41:40;98001.28;;;6.86;83.01
65754;BME280;52488;47.502;18.940;2023-03-22T04:42:43;97996.09;;;6.98;82.85
65754;BME280;52488;47.502;18.940;2023-03-22T04:43:47;97999.31;;;7.04;82.75
65754;BME280;52488;47.502;18.940;2023-03-22T04:44:52;97999.25;;;7.12;82.42
65754;BME280;52488;47.502;18.940;2023-03-22T04:45:55;98000.91;;;6.90;83.06
65754;BME280;52488;47.502;18.940;2023-03-22T04:46:59;98004.63;;;6.77;83.45
65754;BME280;52488;47.502;18.940;2023-03-22T04:48:03;98003.97;;;6.69;83.70
65754;BME280;52488;47.502;18.940;2023-03-22T04:49:06;98007.44;;;6.70;83.76
65754;BME280;52488;47.502;18.940;2023-03-22T04:50:09;98007.81;;;6.66;83.58
65754;BME280;52488;47.502;18.940;2023-03-22T04:51:12;98009.66;;;6.64;83.54
65754;BME280;52488;47.502;18.940;2023-03-22T04:52:15;98015.12;;;6.64;83.55
65754;BME280;52488;47.502;18.940;2023-03-22T04:53:18;98008.88;;;6.71;83.49
65754;BME280;52488;47.502;18.940;2023-03-22T04:54:22;98013.72;;;6.80;83.53
65754;BME280;52488;47.502;18.940;2023-03-22T04:55:25;98012.75;;;6.68;83.85
65754;BME280;52488;47.502;18.940;2023-03-22T04:56:29;98015.00;;;6.54;84.30
65754;BME280;52488;47.502;18.940;2023-03-22T04:57:32;98014.91;;;6.44;84.59
65754;BME280;52488;47.502;18.940;2023-03-22T04:58:38;98020.88;;;6.50;84.68
65754;BME280;52488;47.502;18.940;2023-03-22T04:59:41;98022.31;;;6.51;84.60
65754;BME280;52488;47.502;18.940;2023-03-22T05:00:46;98021.91;;;6.55;84.48
65754;BME280;52488;47.502;18.940;2023-03-22T05:01:50;98019.25;;;6.47;84.52
65754;BME280;52488;47.502;18.940;2023-03-22T05:02:53;98017.66;;;6.44;84.70
65754;BME280;52488;47.502;18.940;2023-03-22T05:03:56;98017.09;;;6.46;84.72
65754;BME280;52488;47.502;18.940;2023-03-22T05:04:59;98016.12;;;6.51;84.72
65754;BME280;52488;47.502;18.940;2023-03-22T05:06:04;98015.00;;;6.54;84.79
65754;BME280;52488;47.502;18.940;2023-03-22T05:07:08;98016.12;;;6.51;84.79
65754;BME280;52488;47.502;18.940;2023-03-22T05:08:11;98016.16;;;6.43;84.95
65754;BME280;52488;47.502;18.940;2023-03-22T05:09:16;98019.84;;;6.38;85.18
65754;BME280;52488;47.502;18.940;2023-03-22T05:10:19;98018.97;;;6.35;85.28
65754;BME280;52488;47.502;18.940;2023-03-22T05:11:22;98016.44;;;6.30;85.61
65754;BME280;52488;47.502;18.940;2023-03-22T05:12:29;98019.03;;;6.28;85.88
65754;BME280;52488;47.502;18.940;2023-03-22T05:13:32;98021.91;;;6.30;85.92
65754;BME280;52488;47.502;18.940;2023-03-22T05:14:35;98024.78;;;6.32;85.86
65754;BME280;52488;47.502;18.940;2023-03-22T05:15:38;98017.91;;;6.31;85.92
65754;BME280;52488;47.502;18.940;2023-03-22T05:16:43;98025.69;;;6.34;86.01
65754;BME280;52488;47.502;18.940;2023-03-22T05:17:46;98024.56;;;6.38;86.06
65754;BME280;52488;47.502;18.940;2023-03-22T05:18:50;98030.75;;;6.38;86.16
65754;BME280;52488;47.502;18.940;2023-03-22T05:19:56;98032.53;;;6.43;86.36
65754;BME280;52488;47.502;18.940;2023-03-22T05:20:59;98019.81;;;6.46;86.45
65754;BME280;52488;47.502;18.940;2023-03-22T05:22:05;98024.53;;;6.45;86.55
65754;BME280;52488;47.502;18.940;2023-03-22T05:23:08;98024.69;;;6.47;86.54
65754;BME280;52488;47.502;18.940;2023-03-22T05:24:11;98021.97;;;6.47;86.51
65754;BME280;52488;47.502;18.940;2023-03-22T05:25:14;98032.50;;;6.51;86.50
65754;BME280;52488;47.502;18.940;2023-03-22T05:26:17;98028.50;;;6.52;86.51
65754;BME280;52488;47.502;18.940;2023-03-22T05:27:21;98040.28;;;6.54;86.64
65754;BME280;52488;47.502;18.940;2023-03-22T05:28:33;98028.13;;;6.55;86.55
65754;BME280;52488;47.502;18.940;2023-03-22T05:29:37;98034.63;;;6.60;86.44
65754;BME280;52488;47.502;18.940;2023-03-22T05:30:41;98028.06;;;6.63;86.36
65754;BME280;52488;47.502;18.940;2023-03-22T05:31:45;98026.87;;;6.74;85.99
65754;BME280;52488;47.502;18.940;2023-03-22T05:32:49;98026.78;;;6.89;85.60
65754;BME280;52488;47.502;18.940;2023-03-22T05:33:53;98027.25;;;6.95;85.42
65754;BME280;52488;47.502;18.940;2023-03-22T05:34:56;98024.53;;;6.95;85.49
65754;BME280;52488;47.502;18.940;2023-03-22T05:35:59;98027.91;;;7.03;85.54
65754;BME280;52488;47.502;18.940;2023-03-22T05:37:02;98031.31;;;7.11;85.45
65754;BME280;52488;47.502;18.940;2023-03-22T05:38:06;98027.28;;;7.12;85.51
65754;BME280;52488;47.502;18.940;2023-03-22T05:39:09;98020.69;;;7.15;85.54
65754;BME280;52488;47.502;18.940;2023-03-22T05:40:12;98026.09;;;7.23;85.43
65754;BME280;52488;47.502;18.940;2023-03-22T05:41:16;98020.94;;;7.27;85.38
65754;BME280;52488;47.502;18.940;2023-03-22T05:42:19;98024.41;;;7.28;85.44
65754;BME280;52488;47.502;18.940;2023-03-22T05:43:22;98015.47;;;7.27;85.58
65754;BME280;52488;47.502;18.940;2023-03-22T05:44:25;98025.28;;;7.30;85.57
65754;BME280;52488;47.502;18.940;2023-03-22T05:45:28;98023.44;;;7.33;85.54
65754;BME280;52488;47.502;18.940;2023-03-22T05:46:31;98027.06;;;7.35;85.62
65754;BME280;52488;47.502;18.940;2023-03-22T05:47:34;98029.22;;;7.37;85.70
65754;BME280;52488;47.502;18.940;2023-03-22T05:48:39;98025.38;;;7.40;85.66
65754;BME280;52488;47.502;18.940;2023-03-22T05:49:42;98033.34;;;7.46;85.80
65754;BME280;52488;47.502;18.940;2023-03-22T05:50:45;98031.47;;;7.48;85.79
65754;BME280;52488;47.502;18.940;2023-03-22T05:51:49;98042.16;;;7.54;85.70
65754;BME280;52488;47.502;18.940;2023-03-22T05:52:52;98030.84;;;7.57;85.62
65754;BME280;52488;47.502;18.940;2023-03-22T05:53:55;98029.31;;;7.64;85.43
65754;BME280;52488;47.502;18.940;2023-03-22T05:54:58;98029.06;;;7.70;85.28
65754;BME280;52488;47.502;18.940;2023-03-22T05:56:01;98038.88;;;7.73;85.27
65754;BME280;52488;47.502;18.940;2023-03-22T05:57:05;98041.91;;;7.77;85.11
65754;BME280;52488;47.502;18.940;2023-03-22T05:58:08;98044.97;;;7.81;84.99
65754;BME280;52488;47.502;18.940;2023-03-22T05:59:12;98048.91;;;7.87;84.78
65754;BME280;52488;47.502;18.940;2023-03-22T06:00:16;98043.91;;;7.93;84.65
65754;BME280;52488;47.502;18.940;2023-03-22T06:01:19;98042.22;;;7.98;84.62
65754;BME280;52488;47.502;18.940;2023-03-22T06:02:23;98042.66;;;8.04;84.48
65754;BME280;52488;47.502;18.940;2023-03-22T06:03:27;98043.47;;;8.14;84.27
65754;BME280;52488;47.502;18.940;2023-03-22T06:04:34;98050.69;;;8.19;84.29
65754;BME280;52488;47.502;18.940;2023-03-22T06:05:37;98050.44;;;8.25;84.37
65754;BME280;52488;47.502;18.940;2023-03-22T06:06:40;98051.47;;;8.30;84.24
65754;BME280;52488;47.502;18.940;2023-03-22T06:07:43;98047.75;;;8.35;84.05
65754;BME280;52488;47.502;18.940;2023-03-22T06:08:46;98050.97;;;8.41;83.76
65754;BME280;52488;47.502;18.940;2023-03-22T06:09:50;98053.47;;;8.46;83.11
65754;BME280;52488;47.502;18.940;2023-03-22T06:10:53;98051.75;;;8.51;82.81
65754;BME280;52488;47.502;18.940;2023-03-22T06:11:57;98060.44;;;8.57;82.57
65754;BME280;52488;47.502;18.940;2023-03-22T06:13:00;98054.53;;;8.61;82.24
65754;BME280;52488;47.502;18.940;2023-03-22T06:14:03;98063.75;;;8.65;81.74
65754;BME280;52488;47.502;18.940;2023-03-22T06:15:07;98061.34;;;8.69;81.67
65754;BME280;52488;47.502;18.940;2023-03-22T06:16:10;98059.94;;;8.78;81.19
65754;BME280;52488;47.502;18.940;2023-03-22T06:17:13;98058.37;;;8.85;80.56
65754;BME280;52488;47.502;18.940;2023-03-22T06:18:16;98059.94;;;8.88;80.36
65754;BME280;52488;47.502;18.940;2023-03-22T06:19:19;98051.91;;;8.90;80.29
65754;BME280;52488;47.502;18.940;2023-03-22T06:20:22;98048.00;;;8.93;80.18
65754;BME280;52488;47.502;18.940;2023-03-22T06:21:27;98051.94;;;8.99;80.16
65754;BME280;52488;47.502;18.940;2023-03-22T06:22:30;98059.13;;;9.05;80.09